Time;durP1;ratioP1;P1;durP2;ratioP2;P2;SDS_P1;SDS_P2;PMS_P1;PMS_P2;Temp;Humidity;BMP_temperature;BMP_pressure;BME280_temperature;BME280_humidity;BME280_pressure;Samples;Min_cycle;Max_cycle;Signal;HPM_P1;HPM_P2
2023/05/21 00:01:01;;;;;;;2.13;1.33;;;17.20;60.50;;;;;;5029524;28;20466;-79
2023/05/21 00:03:29;;;;;;;1.70;1.40;;;17.20;60.50;;;;;;5027518;28;20659;-81
2023/05/21 00:05:55;;;;;;;1.73;1.30;;;17.20;60.50;;;;;;5025702;28;20273;-80
2023/05/21 00:08:22;;;;;;;2.00;1.40;;;17.20;60.50;;;;;;5004340;28;20041;-81
2023/05/21 00:10:48;;;;;;;1.90;1.20;;;17.10;60.50;;;;;;5014247;28;20246;-78
2023/05/21 00:13:14;;;;;;;1.95;1.50;;;17.10;60.60;;;;;;5025555;28;20079;-78
2023/05/21 00:15:40;;;;;;;2.08;1.45;;;17.10;60.70;;;;;;5023960;28;20218;-80
2023/05/21 00:18:05;;;;;;;1.90;1.40;;;17.00;60.70;;;;;;5034326;28;20379;-78
2023/05/21 00:20:31;;;;;;;3.15;1.30;;;16.90;60.90;;;;;;5033008;28;20151;-81
2023/05/21 00:23:04;;;;;;;2.47;1.48;;;16.90;61.00;;;;;;5019107;28;20113;-79
2023/05/21 00:25:30;;;;;;;2.10;1.17;;;16.90;61.40;;;;;;5019823;28;20025;-82
2023/05/21 00:27:56;;;;;;;2.05;1.40;;;16.80;61.20;;;;;;5042408;28;20110;-79
2023/05/21 00:30:22;;;;;;;1.70;1.52;;;16.80;61.30;;;;;;5030655;28;20033;-81
2023/05/21 00:32:47;;;;;;;2.58;1.58;;;16.70;61.30;;;;;;5032116;28;20269;-79
2023/05/21 00:35:14;;;;;;;2.00;1.30;;;16.70;61.40;;;;;;5047010;28;20033;-79
2023/05/21 00:37:39;;;;;;;1.75;1.50;;;16.70;61.50;;;;;;5015666;28;20364;-79
2023/05/21 00:40:08;;;;;;;1.80;1.40;;;16.70;61.60;;;;;;5037685;28;20406;-78
2023/05/21 00:42:38;;;;;;;2.42;1.38;;;16.60;61.80;;;;;;5004660;28;20631;-81
2023/05/21 00:45:08;;;;;;;2.10;1.40;;;16.60;61.80;;;;;;5029649;28;20020;-81
2023/05/21 00:47:34;;;;;;;1.95;1.60;;;16.60;62.40;;;;;;5038009;28;20094;-82
2023/05/21 00:50:02;;;;;;;2.53;1.60;;;16.60;62.10;;;;;;5036980;28;20028;-80
2023/05/21 00:52:28;;;;;;;2.75;1.50;;;16.50;62.10;;;;;;5035131;28;20074;-81
2023/05/21 00:54:54;;;;;;;2.08;1.48;;;16.50;62.20;;;;;;5018032;28;20052;-81
2023/05/21 00:57:21;;;;;;;1.90;1.43;;;16.40;62.20;;;;;;5030996;28;20036;-82
2023/05/21 00:59:51;;;;;;;2.13;1.50;;;16.40;62.40;;;;;;5034820;28;20134;-79
2023/05/21 01:02:17;;;;;;;1.77;1.58;;;16.40;62.60;;;;;;5031693;28;20424;-80
2023/05/21 01:04:46;;;;;;;2.42;1.60;;;16.30;62.40;;;;;;5030728;28;20976;-81
2023/05/21 01:07:13;;;;;;;1.70;1.30;;;16.30;62.90;;;;;;5030320;28;20506;-79
2023/05/21 01:09:41;;;;;;;2.07;1.60;;;16.30;62.70;;;;;;5023860;28;20820;-80
2023/05/21 01:12:07;;;;;;;2.63;1.70;;;16.30;62.90;;;;;;5033623;28;20382;-79
2023/05/21 01:14:36;;;;;;;2.20;1.50;;;16.20;62.90;;;;;;5020071;28;20514;-81
2023/05/21 01:17:05;;;;;;;2.97;1.60;;;16.20;63.30;;;;;;5023403;28;20682;-79
2023/05/21 01:19:31;;;;;;;1.80;1.45;;;16.10;63.40;;;;;;5036153;28;20032;-82
2023/05/21 01:22:04;;;;;;;2.53;1.50;;;16.10;63.20;;;;;;5028929;28;20105;-82
2023/05/21 01:24:30;;;;;;;1.88;1.50;;;16.10;63.70;;;;;;5028960;28;20363;-80
2023/05/21 01:26:57;;;;;;;2.00;1.42;;;16.10;63.30;;;;;;5044121;28;20116;-79
2023/05/21 01:29:23;;;;;;;3.17;1.45;;;16.10;63.40;;;;;;5038581;28;20097;-80
2023/05/21 01:31:58;;;;;;;2.08;1.52;;;16.10;63.50;;;;;;5029378;28;20030;-82
2023/05/21 01:34:56;;;;;;;2.43;1.50;;;16.00;64.00;;;;;;5032722;28;20033;-81
2023/05/21 01:37:54;;;;;;;2.55;1.63;;;16.00;65.30;;;;;;5057476;28;20494;-80
2023/05/21 01:40:40;;;;;;;1.98;1.60;;;16.00;64.90;;;;;;5010527;28;20119;-79
2023/05/21 01:43:07;;;;;;;2.13;1.40;;;16.00;65.30;;;;;;5031793;28;20107;-80
2023/05/21 01:45:37;;;;;;;2.28;1.27;;;15.90;63.80;;;;;;5003069;28;20029;-82
2023/05/21 01:48:04;;;;;;;1.77;1.50;;;15.90;64.10;;;;;;5026008;28;20619;-79
2023/05/21 01:50:31;;;;;;;2.22;1.55;;;15.90;64.10;;;;;;5052593;28;20111;-79
2023/05/21 01:52:59;;;;;;;1.73;1.40;;;15.80;64.10;;;;;;5034452;28;20425;-80
2023/05/21 01:55:26;;;;;;;2.25;1.42;;;15.80;64.10;;;;;;5011043;28;20060;-80
2023/05/21 01:57:56;;;;;;;1.67;1.48;;;15.80;64.30;;;;;;5027611;28;20401;-82
2023/05/21 02:00:25;;;;;;;1.93;1.50;;;15.80;64.80;;;;;;5034960;28;20383;-80
2023/05/21 02:02:52;;;;;;;1.58;1.35;;;15.70;64.50;;;;;;5043299;28;20496;-80
2023/05/21 02:05:18;;;;;;;1.92;1.50;;;15.70;64.40;;;;;;5031165;28;20537;-79
2023/05/21 02:07:46;;;;;;;2.85;1.52;;;15.70;64.50;;;;;;5026757;28;20016;-81
2023/05/21 02:10:12;;;;;;;2.50;1.50;;;15.70;64.70;;;;;;5008138;28;20534;-79
2023/05/21 02:12:38;;;;;;;2.78;1.50;;;15.60;64.60;;;;;;5036065;28;20509;-81
2023/05/21 02:15:05;;;;;;;1.92;1.48;;;15.70;64.90;;;;;;5027000;28;20154;-82
2023/05/21 02:17:32;;;;;;;2.85;1.60;;;15.60;65.10;;;;;;5052347;28;20021;-79
2023/05/21 02:20:12;;;;;;;2.10;1.60;;;15.60;65.10;;;;;;5031199;28;20374;-79
2023/05/21 02:22:43;;;;;;;1.73;1.50;;;15.60;65.10;;;;;;5036167;28;20487;-82
2023/05/21 02:25:10;;;;;;;2.45;1.65;;;15.60;65.80;;;;;;5051738;28;20255;-80
2023/05/21 02:27:36;;;;;;;2.42;1.60;;;15.60;65.40;;;;;;5013025;28;20029;-82
2023/05/21 02:30:04;;;;;;;2.88;1.98;;;15.50;65.40;;;;;;5023933;28;20032;-79
2023/05/21 02:32:33;;;;;;;3.13;1.75;;;15.50;65.60;;;;;;5035875;28;20021;-79
2023/05/21 02:35:02;;;;;;;2.40;1.90;;;15.50;65.70;;;;;;5033228;28;20029;-80
2023/05/21 02:37:28;;;;;;;2.17;1.65;;;15.50;65.80;;;;;;5035112;28;20044;-80
2023/05/21 02:39:55;;;;;;;2.17;1.83;;;15.40;65.90;;;;;;5029937;28;20117;-79
2023/05/21 02:42:24;;;;;;;2.70;1.83;;;15.40;66.00;;;;;;5014990;28;20136;-80
2023/05/21 02:44:51;;;;;;;2.20;1.77;;;15.40;66.50;;;;;;5050713;28;20100;-82
2023/05/21 02:47:18;;;;;;;2.90;1.70;;;15.40;66.20;;;;;;5043772;28;20037;-81
2023/05/21 02:49:45;;;;;;;2.75;1.63;;;15.40;66.30;;;;;;5036455;28;20082;-82
2023/05/21 02:52:11;;;;;;;2.47;1.73;;;15.40;66.40;;;;;;5018860;28;20116;-82
2023/05/21 02:54:37;;;;;;;2.22;1.65;;;15.40;66.50;;;;;;5034665;28;20053;-82
2023/05/21 02:57:03;;;;;;;2.58;1.98;;;15.40;66.70;;;;;;5048375;28;20225;-80
2023/05/21 02:59:29;;;;;;;3.57;1.70;;;15.30;66.70;;;;;;5019106;28;20115;-80
2023/05/21 03:01:55;;;;;;;2.40;1.80;;;15.30;66.70;;;;;;5021689;28;20573;-81
2023/05/21 03:04:21;;;;;;;2.97;1.98;;;15.30;66.80;;;;;;5035539;28;20022;-81
2023/05/21 03:06:48;;;;;;;2.23;1.60;;;15.30;66.80;;;;;;5050676;28;20227;-82
2023/05/21 03:09:14;;;;;;;2.63;2.00;;;15.30;67.00;;;;;;5015852;28;20052;-80
2023/05/21 03:11:42;;;;;;;3.13;1.88;;;15.20;67.00;;;;;;5027683;28;20025;-82
2023/05/21 03:14:08;;;;;;;2.63;1.92;;;15.20;67.30;;;;;;5008596;28;20088;-81
2023/05/21 03:16:34;;;;;;;2.20;1.73;;;15.20;67.00;;;;;;5026562;28;20037;-82
2023/05/21 03:19:00;;;;;;;2.47;1.77;;;15.20;67.20;;;;;;5048873;28;20325;-79
2023/05/21 03:21:28;;;;;;;2.67;1.63;;;15.20;67.40;;;;;;5046799;28;20529;-79
2023/05/21 03:23:57;;;;;;;2.70;1.90;;;15.20;68.30;;;;;;5026163;28;20705;-80
2023/05/21 03:26:26;;;;;;;2.42;1.75;;;15.20;67.70;;;;;;5030499;28;20394;-82
2023/05/21 03:28:52;;;;;;;3.13;1.90;;;15.10;67.80;;;;;;5007952;28;21709;-79
2023/05/21 03:31:19;;;;;;;2.65;1.90;;;15.10;67.80;;;;;;5058491;28;20395;-80
2023/05/21 03:33:45;;;;;;;3.22;2.05;;;15.10;67.80;;;;;;5031840;28;20532;-82
2023/05/21 03:36:11;;;;;;;3.85;2.20;;;15.10;68.00;;;;;;5029597;28;20029;-81
2023/05/21 03:38:37;;;;;;;2.80;1.97;;;15.10;68.00;;;;;;5033405;28;20245;-82
2023/05/21 03:41:03;;;;;;;2.65;2.10;;;15.10;68.00;;;;;;5027437;28;20027;-80
2023/05/21 03:43:29;;;;;;;2.92;2.17;;;15.10;68.10;;;;;;5034610;28;20171;-82
2023/05/21 03:45:55;;;;;;;2.70;2.00;;;15.00;68.10;;;;;;5002522;28;20233;-79
2023/05/21 03:48:21;;;;;;;2.90;2.05;;;15.00;68.20;;;;;;5043402;28;20040;-81
2023/05/21 03:50:46;;;;;;;2.72;2.03;;;15.10;68.40;;;;;;5017397;28;20116;-82
2023/05/21 03:53:12;;;;;;;2.63;1.97;;;15.00;68.50;;;;;;5031292;28;20068;-80
2023/05/21 03:55:41;;;;;;;2.65;2.00;;;15.00;68.50;;;;;;5026348;28;20048;-81
2023/05/21 03:58:08;;;;;;;2.72;1.70;;;15.00;68.70;;;;;;5029123;28;20636;-79
2023/05/21 04:00:36;;;;;;;2.75;2.15;;;15.00;68.80;;;;;;5007039;28;20064;-82
2023/05/21 04:03:05;;;;;;;3.00;2.00;;;15.00;68.80;;;;;;5030302;28;20013;-78
2023/05/21 04:05:32;;;;;;;2.80;1.73;;;15.00;69.20;;;;;;5017545;28;20334;-81
2023/05/21 04:07:58;;;;;;;2.78;1.90;;;15.00;69.00;;;;;;5041966;28;20348;-79
2023/05/21 04:10:25;;;;;;;2.30;1.80;;;15.00;69.10;;;;;;5011514;28;20028;-78
2023/05/21 04:12:51;;;;;;;2.35;1.80;;;15.00;69.10;;;;;;5025668;28;20313;-82
2023/05/21 04:15:18;;;;;;;2.57;1.97;;;15.00;69.20;;;;;;5037636;28;20091;-80
2023/05/21 04:17:44;;;;;;;2.97;2.00;;;15.00;69.20;;;;;;5029430;28;20060;-82
2023/05/21 04:20:12;;;;;;;3.40;2.20;;;15.00;69.30;;;;;;5024292;28;20353;-79
2023/05/21 04:22:38;;;;;;;3.67;2.15;;;15.00;69.60;;;;;;5011540;28;20025;-82
2023/05/21 04:25:05;;;;;;;3.30;2.10;;;15.00;69.50;;;;;;5047243;28;20383;-80
2023/05/21 04:27:31;;;;;;;2.43;1.77;;;15.00;69.60;;;;;;5034472;28;20037;-82
2023/05/21 04:29:56;;;;;;;3.40;2.28;;;15.00;69.70;;;;;;5008784;28;20273;-79
2023/05/21 04:32:23;;;;;;;3.08;2.10;;;15.00;69.80;;;;;;5032343;28;20659;-79
2023/05/21 04:34:49;;;;;;;3.13;2.03;;;15.10;70.00;;;;;;5008983;28;20020;-82
2023/05/21 04:37:18;;;;;;;2.97;1.97;;;15.10;70.00;;;;;;5026064;28;20025;-82
2023/05/21 04:39:45;;;;;;;3.33;2.03;;;15.10;70.30;;;;;;5036582;28;20380;-81
2023/05/21 04:42:11;;;;;;;2.83;2.20;;;15.10;70.10;;;;;;5040164;28;20009;-81
2023/05/21 04:44:39;;;;;;;3.00;2.07;;;15.10;70.30;;;;;;5033373;28;20368;-82
2023/05/21 04:47:06;;;;;;;4.17;2.20;;;15.10;70.40;;;;;;5007419;28;20267;-79
2023/05/21 04:49:33;;;;;;;3.60;2.10;;;15.20;70.50;;;;;;5038804;28;20659;-80
2023/05/21 04:52:01;;;;;;;2.78;1.92;;;15.20;70.60;;;;;;5026987;28;20569;-81
2023/05/21 04:54:28;;;;;;;3.10;2.10;;;15.20;70.70;;;;;;5040390;28;20036;-79
2023/05/21 04:56:53;;;;;;;3.00;2.05;;;15.20;70.80;;;;;;5052666;28;20259;-82
2023/05/21 04:59:20;;;;;;;2.80;2.07;;;15.30;70.80;;;;;;5044979;28;20031;-83
2023/05/21 05:01:46;;;;;;;2.88;2.25;;;15.30;70.70;;;;;;4982929;28;20029;-81
2023/05/21 05:04:12;;;;;;;2.38;2.00;;;15.30;70.80;;;;;;5036054;28;20036;-82
2023/05/21 05:06:38;;;;;;;3.67;2.33;;;15.40;70.90;;;;;;5026070;28;20045;-81
2023/05/21 05:09:04;;;;;;;3.40;2.15;;;15.40;71.10;;;;;;5016574;28;20025;-82
2023/05/21 05:11:30;;;;;;;2.40;1.95;;;15.40;70.90;;;;;;5031183;28;20144;-79
2023/05/21 05:13:56;;;;;;;3.38;2.15;;;15.50;71.00;;;;;;5050629;28;20040;-83
2023/05/21 05:16:24;;;;;;;2.90;2.27;;;15.50;71.20;;;;;;5005676;28;20438;-80
2023/05/21 05:18:51;;;;;;;2.70;2.08;;;15.50;71.20;;;;;;5034102;28;20029;-79
2023/05/21 05:21:17;;;;;;;3.03;2.20;;;15.50;71.20;;;;;;5026304;28;20035;-82
2023/05/21 05:23:43;;;;;;;3.10;2.10;;;15.60;71.30;;;;;;4989383;28;20052;-80
2023/05/21 05:26:10;;;;;;;3.77;2.10;;;15.60;71.30;;;;;;5031975;28;20107;-83
2023/05/21 05:28:35;;;;;;;3.17;2.20;;;15.60;71.60;;;;;;5029188;28;20107;-82
2023/05/21 05:31:01;;;;;;;2.97;2.22;;;15.60;71.60;;;;;;5008365;28;20328;-83
2023/05/21 05:33:27;;;;;;;3.10;2.27;;;15.70;71.70;;;;;;5044280;28;20028;-83
2023/05/21 05:35:53;;;;;;;3.33;2.40;;;15.70;71.80;;;;;;5030023;28;20221;-78
2023/05/21 05:38:19;;;;;;;4.05;2.40;;;15.70;71.70;;;;;;5023456;28;20571;-80
2023/05/21 05:40:45;;;;;;;3.63;2.10;;;15.80;71.80;;;;;;5035227;28;20457;-81
2023/05/21 05:43:10;;;;;;;2.70;2.13;;;15.80;71.80;;;;;;5032009;28;20484;-81
2023/05/21 05:45:36;;;;;;;3.30;2.30;;;15.90;72.00;;;;;;5009827;28;20047;-84
2023/05/21 05:48:02;;;;;;;3.35;2.38;;;15.90;72.00;;;;;;5030554;28;20028;-80
2023/05/21 05:50:28;;;;;;;2.88;2.15;;;15.90;72.00;;;;;;5036958;28;20203;-82
2023/05/21 05:52:54;;;;;;;3.03;2.33;;;15.90;72.00;;;;;;5031448;28;20513;-81
2023/05/21 05:55:20;;;;;;;3.58;2.20;;;16.00;71.90;;;;;;5011918;28;20445;-80
2023/05/21 05:57:46;;;;;;;3.85;2.42;;;16.00;72.10;;;;;;5031150;28;20687;-82
2023/05/21 06:00:13;;;;;;;3.80;2.13;;;16.10;72.20;;;;;;5063187;28;20533;-83
2023/05/21 06:02:39;;;;;;;3.53;2.40;;;16.10;72.20;;;;;;5007566;28;21135;-81
2023/05/21 06:05:09;;;;;;;3.63;2.25;;;16.20;72.40;;;;;;5034147;28;20021;-80
2023/05/21 06:07:37;;;;;;;3.40;2.30;;;16.20;72.90;;;;;;5042294;28;20028;-81
2023/05/21 06:10:07;;;;;;;3.55;2.33;;;16.30;72.90;;;;;;5009749;28;20089;-80
2023/05/21 06:12:33;;;;;;;3.13;2.30;;;16.40;73.10;;;;;;5032057;28;20119;-82
2023/05/21 06:15:00;;;;;;;3.40;2.53;;;16.40;72.90;;;;;;5036060;28;20060;-80
2023/05/21 06:17:26;;;;;;;3.25;2.20;;;16.50;72.70;;;;;;5024123;28;20038;-82
2023/05/21 06:19:52;;;;;;;3.30;2.45;;;16.60;72.90;;;;;;5015065;28;20242;-81
2023/05/21 06:22:18;;;;;;;3.87;2.37;;;16.70;72.80;;;;;;5033138;28;20021;-82
2023/05/21 06:24:43;;;;;;;3.70;2.60;;;16.70;72.70;;;;;;5016962;28;20104;-81
2023/05/21 06:27:09;;;;;;;3.43;2.53;;;16.80;72.70;;;;;;5023665;28;20033;-81
2023/05/21 06:29:35;;;;;;;4.68;2.83;;;16.80;72.70;;;;;;5015099;28;20028;-83
2023/05/21 06:32:01;;;;;;;3.15;2.30;;;16.80;72.70;;;;;;5014033;28;20163;-81
2023/05/21 06:34:27;;;;;;;3.17;2.63;;;16.90;72.60;;;;;;5041499;28;20041;-81
2023/05/21 06:36:53;;;;;;;3.20;2.35;;;16.90;72.60;;;;;;5035693;28;20028;-80
2023/05/21 06:39:19;;;;;;;4.05;2.50;;;16.90;72.70;;;;;;5038690;28;20013;-80
2023/05/21 06:41:45;;;;;;;3.17;2.40;;;17.00;72.90;;;;;;5015364;28;20025;-82
2023/05/21 06:44:11;;;;;;;3.85;2.90;;;17.00;72.90;;;;;;5036736;28;20029;-82
2023/05/21 06:46:37;;;;;;;4.80;2.73;;;17.10;73.10;;;;;;5037921;28;20055;-79
2023/05/21 06:49:02;;;;;;;3.92;2.65;;;17.10;73.10;;;;;;5048196;28;20040;-83
2023/05/21 06:51:28;;;;;;;4.47;2.73;;;17.20;73.20;;;;;;5020762;28;20106;-81
2023/05/21 06:53:54;;;;;;;3.80;2.67;;;17.20;73.10;;;;;;5039403;28;20044;-78
2023/05/21 06:56:20;;;;;;;3.92;2.53;;;17.20;73.00;;;;;;5010290;28;20729;-80
2023/05/21 06:58:46;;;;;;;4.03;2.80;;;17.30;73.10;;;;;;5041263;28;20017;-79
2023/05/21 07:01:12;;;;;;;3.10;2.43;;;17.30;73.10;;;;;;5037475;28;20032;-82
2023/05/21 07:03:38;;;;;;;3.47;2.65;;;17.40;73.20;;;;;;5036518;28;20136;-79
2023/05/21 07:06:05;;;;;;;3.25;2.50;;;17.40;73.30;;;;;;5011028;28;20060;-84
2023/05/21 07:08:31;;;;;;;3.40;2.40;;;17.50;73.50;;;;;;5026037;28;20643;-82
2023/05/21 07:10:57;;;;;;;4.05;2.80;;;17.50;73.50;;;;;;5033295;28;20024;-81
2023/05/21 07:13:23;;;;;;;4.60;2.90;;;17.60;73.70;;;;;;5012890;28;20025;-77
2023/05/21 07:15:49;;;;;;;4.30;2.65;;;17.70;73.70;;;;;;5034240;28;20033;-82
2023/05/21 07:18:15;;;;;;;4.53;2.80;;;17.80;73.90;;;;;;5012690;28;20064;-83
2023/05/21 07:20:41;;;;;;;3.45;2.80;;;17.90;74.30;;;;;;5008246;28;20021;-82
2023/05/21 07:23:07;;;;;;;3.43;2.50;;;18.10;74.70;;;;;;5012361;28;20054;-82
2023/05/21 07:25:34;;;;;;;3.40;2.60;;;18.30;75.20;;;;;;5026899;28;20032;-79
2023/05/21 07:28:00;;;;;;;3.60;2.90;;;18.50;75.30;;;;;;5012765;28;20120;-83
2023/05/21 07:30:26;;;;;;;4.25;2.90;;;18.70;75.20;;;;;;5029648;28;20025;-80
2023/05/21 07:32:52;;;;;;;3.53;2.60;;;18.90;74.80;;;;;;5035379;28;20036;-78
2023/05/21 07:35:18;;;;;;;3.70;2.80;;;19.10;74.40;;;;;;5001547;28;20033;-83
2023/05/21 07:37:45;;;;;;;4.10;2.72;;;19.20;73.90;;;;;;5059709;28;20325;-81
2023/05/21 07:40:12;;;;;;;4.47;2.80;;;19.40;73.70;;;;;;5045477;28;20033;-80
2023/05/21 07:42:38;;;;;;;3.60;2.80;;;19.50;73.70;;;;;;5012150;28;20051;-79
2023/05/21 07:45:04;;;;;;;5.30;3.20;;;19.60;73.80;;;;;;5045152;28;20040;-83
2023/05/21 07:47:30;;;;;;;3.20;2.80;;;19.80;73.90;;;;;;5010202;28;20072;-81
2023/05/21 07:49:57;;;;;;;3.60;2.73;;;19.90;74.30;;;;;;5027372;28;20494;-77
2023/05/21 07:52:23;;;;;;;4.95;3.15;;;20.10;75.00;;;;;;5002463;28;20136;-82
2023/05/21 07:54:49;;;;;;;3.70;3.05;;;20.40;73.90;;;;;;5028688;28;20083;-79
2023/05/21 07:57:15;;;;;;;4.18;3.33;;;20.50;73.40;;;;;;5034042;28;21851;-80
2023/05/21 07:59:41;;;;;;;4.47;3.43;;;20.70;72.70;;;;;;5019848;28;20486;-82
2023/05/21 08:02:06;;;;;;;3.45;2.67;;;20.80;72.40;;;;;;5030920;28;20803;-80
2023/05/21 08:04:32;;;;;;;3.40;2.80;;;21.00;72.70;;;;;;5032551;28;20411;-79
2023/05/21 08:06:58;;;;;;;3.95;2.90;;;21.10;73.60;;;;;;5007442;28;21814;-80
2023/05/21 08:09:24;;;;;;;3.43;3.10;;;21.20;72.60;;;;;;5010448;28;20017;-79
2023/05/21 08:11:50;;;;;;;3.20;2.50;;;21.40;72.30;;;;;;5033664;28;20718;-78
2023/05/21 08:14:16;;;;;;;3.60;2.83;;;21.50;72.30;;;;;;5024220;28;20044;-80
2023/05/21 08:16:43;;;;;;;3.87;2.80;;;21.70;72.20;;;;;;5032907;28;20041;-83
2023/05/21 08:19:09;;;;;;;3.58;2.78;;;21.80;72.20;;;;;;5035748;28;20454;-78
2023/05/21 08:21:35;;;;;;;4.38;3.15;;;22.00;72.60;;;;;;5026499;28;20021;-81
2023/05/21 08:24:01;;;;;;;4.07;2.70;;;22.20;72.60;;;;;;5032413;28;20232;-79
2023/05/21 08:26:27;;;;;;;3.88;2.90;;;22.50;72.90;;;;;;5038598;28;20036;-81
2023/05/21 08:28:53;;;;;;;3.67;3.00;;;22.70;72.80;;;;;;5019852;28;20024;-78
2023/05/21 08:31:20;;;;;;;3.92;2.80;;;23.00;71.90;;;;;;5038006;28;20116;-81
2023/05/21 08:33:55;;;;;;;6.28;3.00;;;23.20;71.30;;;;;;5031352;28;20076;-80
2023/05/21 08:36:21;;;;;;;3.30;2.50;;;23.40;70.90;;;;;;5039641;28;20028;-77
2023/05/21 08:38:47;;;;;;;3.20;2.40;;;23.70;72.30;;;;;;5030285;28;20096;-82
2023/05/21 08:41:15;;;;;;;3.55;2.75;;;23.90;72.20;;;;;;5033507;28;20035;-81
2023/05/21 08:43:42;;;;;;;3.60;2.53;;;24.30;71.80;;;;;;5024687;28;20029;-83
2023/05/21 08:46:08;;;;;;;3.47;3.10;;;24.60;71.50;;;;;;5031716;28;20060;-78
2023/05/21 08:48:36;;;;;;;5.87;3.23;;;25.00;70.40;;;;;;5038178;28;20120;-81
2023/05/21 08:51:02;;;;;;;4.88;3.28;;;25.20;68.70;;;;;;5036764;28;20225;-78
2023/05/21 08:53:28;;;;;;;4.28;2.80;;;25.40;67.90;;;;;;5032288;28;20052;-84
2023/05/21 08:55:55;;;;;;;3.10;2.60;;;25.40;67.90;;;;;;5010769;28;20244;-82
2023/05/21 08:58:22;;;;;;;3.63;3.00;;;25.60;68.30;;;;;;5038877;28;20070;-80
2023/05/21 09:00:48;;;;;;;3.67;2.65;;;25.90;68.50;;;;;;5005728;28;20196;-79
2023/05/21 09:03:15;;;;;;;4.13;3.35;;;26.10;68.60;;;;;;5042418;28;20386;-81
2023/05/21 09:05:42;;;;;;;4.57;3.20;;;26.30;67.50;;;;;;5012791;28;20025;-83
2023/05/21 09:08:18;;;;;;;4.57;3.00;;;26.50;66.70;;;;;;5015686;28;20009;-79
2023/05/21 09:10:51;;;;;;;4.10;3.05;;;26.60;64.60;;;;;;5019567;28;20033;-83
2023/05/21 09:13:18;;;;;;;3.83;3.33;;;26.80;65.40;;;;;;5053060;28;20017;-80
2023/05/21 09:15:44;;;;;;;4.85;3.20;;;26.90;64.50;;;;;;5013652;28;20025;-84
2023/05/21 09:18:12;;;;;;;3.08;2.78;;;26.90;64.50;;;;;;5016903;28;20037;-80
2023/05/21 09:20:39;;;;;;;4.17;3.20;;;27.00;64.00;;;;;;5036419;28;20028;-80
2023/05/21 09:23:11;;;;;;;4.13;2.60;;;27.20;64.10;;;;;;5057469;28;20611;-80
2023/05/21 09:25:38;;;;;;;3.92;3.45;;;27.30;64.50;;;;;;5000920;28;20593;-84
2023/05/21 09:28:10;;;;;;;4.07;3.10;;;27.50;63.60;;;;;;5046933;28;20306;-80
2023/05/21 09:30:36;;;;;;;3.78;3.20;;;27.70;63.50;;;;;;5018064;28;20593;-82
2023/05/21 09:33:02;;;;;;;5.27;3.93;;;27.80;62.90;;;;;;5032888;28;20035;-80
2023/05/21 09:35:28;;;;;;;4.43;3.75;;;27.90;61.30;;;;;;5020547;28;20020;-83
2023/05/21 09:37:56;;;;;;;4.07;3.25;;;27.90;60.70;;;;;;5033201;28;20598;-78
2023/05/21 09:40:23;;;;;;;3.67;3.27;;;27.90;61.20;;;;;;5011038;28;20041;-79
2023/05/21 09:42:51;;;;;;;4.80;3.45;;;27.90;61.00;;;;;;5032975;28;20568;-81
2023/05/21 09:45:28;;;;;;;4.47;3.30;;;28.00;60.90;;;;;;5030518;28;20059;-80
2023/05/21 09:47:55;;;;;;;4.38;3.58;;;28.20;60.50;;;;;;5014451;28;20463;-79
2023/05/21 09:50:30;;;;;;;3.88;3.05;;;28.40;61.80;;;;;;5034783;28;20021;-80
2023/05/21 09:52:57;;;;;;;5.47;3.10;;;28.70;61.30;;;;;;5013818;28;20317;-79
2023/05/21 09:55:24;;;;;;;4.15;3.50;;;29.00;62.30;;;;;;5017366;28;20094;-81
2023/05/21 09:57:51;;;;;;;3.75;3.17;;;29.30;61.30;;;;;;4997563;28;20332;-79
2023/05/21 10:00:26;;;;;;;4.18;3.00;;;29.50;60.80;;;;;;5049713;28;20070;-78
2023/05/21 10:03:00;;;;;;;3.58;3.17;;;29.80;59.20;;;;;;5035133;28;20222;-79
2023/05/21 10:05:29;;;;;;;4.63;3.70;;;29.90;59.10;;;;;;5031042;28;20036;-79
2023/05/21 10:08:03;;;;;;;4.95;3.70;;;30.20;58.80;;;;;;5047095;28;20734;-78
2023/05/21 10:10:30;;;;;;;3.97;3.58;;;30.30;57.30;;;;;;5028821;28;20036;-81
2023/05/21 10:13:07;;;;;;;4.07;3.63;;;30.40;56.70;;;;;;4989720;28;21255;-79
2023/05/21 10:15:47;;;;;;;5.20;3.80;;;30.20;55.50;;;;;;5030494;28;20033;-82
2023/05/21 10:18:13;;;;;;;3.97;3.20;;;30.00;54.20;;;;;;5037577;28;20510;-80
2023/05/21 10:20:39;;;;;;;4.95;3.40;;;29.70;54.70;;;;;;5031433;28;20390;-82
2023/05/21 10:23:06;;;;;;;4.40;3.78;;;29.40;54.60;;;;;;5043908;28;20027;-79
2023/05/21 10:25:32;;;;;;;4.95;3.78;;;29.10;55.20;;;;;;5030022;28;20029;-83
2023/05/21 10:27:58;;;;;;;5.95;4.18;;;29.00;55.90;;;;;;5019058;28;20797;-80
2023/05/21 10:30:24;;;;;;;5.63;3.80;;;28.80;55.60;;;;;;5004427;28;20029;-79
2023/05/21 10:32:50;;;;;;;4.70;3.53;;;28.70;55.20;;;;;;5013615;28;20723;-79
2023/05/21 10:35:16;;;;;;;9.23;4.10;;;28.50;55.50;;;;;;5032367;28;20256;-79
2023/05/21 10:37:45;;;;;;;4.10;3.43;;;28.50;56.10;;;;;;5029054;28;20331;-80
2023/05/21 10:40:12;;;;;;;3.97;3.35;;;28.40;56.10;;;;;;5036742;28;20042;-79
2023/05/21 10:42:57;;;;;;;5.10;3.40;;;28.40;56.30;;;;;;4986927;28;20106;-80
2023/05/21 10:45:42;;;;;;;5.05;3.65;;;28.40;55.80;;;;;;5032069;28;20410;-79
2023/05/21 10:48:13;;;;;;;4.57;3.88;;;28.40;55.70;;;;;;5029997;28;20025;-80
2023/05/21 10:51:07;;;;;;;5.13;3.63;;;28.40;55.80;;;;;;5015693;28;20051;-81
2023/05/21 10:54:02;;;;;;;4.85;4.00;;;28.40;56.00;;;;;;5050871;28;20597;-81
2023/05/21 10:56:36;;;;;;;4.38;3.72;;;28.50;57.00;;;;;;5030624;28;20036;-79
2023/05/21 10:59:30;;;;;;;4.53;3.85;;;28.60;56.60;;;;;;5027546;28;20281;-80
2023/05/21 11:01:56;;;;;;;4.50;3.88;;;28.70;56.20;;;;;;5045015;28;20099;-78
2023/05/21 11:04:26;;;;;;;5.67;4.10;;;28.70;56.60;;;;;;5035128;28;20088;-80
2023/05/21 11:06:52;;;;;;;4.40;3.80;;;28.80;56.10;;;;;;5066861;28;20115;-81
2023/05/21 11:09:18;;;;;;;4.05;3.42;;;28.80;56.20;;;;;;5001356;28;21205;-79
2023/05/21 11:11:49;;;;;;;4.38;3.90;;;29.00;56.80;;;;;;5018538;28;20104;-79
2023/05/21 11:14:27;;;;;;;4.47;3.97;;;29.10;56.50;;;;;;5013947;28;20048;-80
2023/05/21 11:16:53;;;;;;;4.80;3.95;;;29.20;55.10;;;;;;5034248;28;20033;-83
2023/05/21 11:19:19;;;;;;;4.55;3.90;;;29.20;55.00;;;;;;5050408;28;20744;-80
2023/05/21 11:21:51;;;;;;;5.00;3.77;;;29.10;54.70;;;;;;5021797;28;20025;-83
2023/05/21 11:24:20;;;;;;;4.38;3.70;;;29.10;54.60;;;;;;5033904;28;20426;-79
2023/05/21 11:26:49;;;;;;;5.25;3.88;;;29.00;54.50;;;;;;5050167;28;20032;-82
2023/05/21 11:29:15;;;;;;;4.78;4.13;;;28.90;54.40;;;;;;5007537;28;20033;-80
2023/05/21 11:31:57;;;;;;;4.53;3.83;;;28.90;55.30;;;;;;5029383;28;21243;-80
2023/05/21 11:34:27;;;;;;;5.10;4.20;;;28.90;55.40;;;;;;5035448;28;20675;-79
2023/05/21 11:37:19;;;;;;;4.82;4.00;;;29.00;55.70;;;;;;5001705;28;20036;-82
2023/05/21 11:39:49;;;;;;;4.95;3.72;;;29.10;55.00;;;;;;5047033;28;20036;-81
2023/05/21 11:42:31;;;;;;;4.55;3.63;;;29.10;55.20;;;;;;5028900;28;20538;-78
2023/05/21 11:44:58;;;;;;;4.47;4.07;;;29.10;54.50;;;;;;4986473;28;20027;-81
2023/05/21 11:47:25;;;;;;;4.40;3.80;;;29.10;54.70;;;;;;5033568;28;20033;-80
2023/05/21 11:49:51;;;;;;;4.32;3.58;;;29.10;54.90;;;;;;5033606;28;20055;-83
2023/05/21 11:52:18;;;;;;;5.00;4.50;;;29.20;56.00;;;;;;5013937;28;20233;-80
2023/05/21 11:54:47;;;;;;;4.82;3.95;;;29.40;55.70;;;;;;5034780;28;20049;-80
2023/05/21 11:57:15;;;;;;;4.35;3.95;;;29.50;55.20;;;;;;5031676;28;20106;-80
2023/05/21 11:59:41;;;;;;;4.40;4.00;;;29.50;54.40;;;;;;5049044;28;20025;-81
2023/05/21 12:02:07;;;;;;;5.20;4.30;;;29.50;53.80;;;;;;5004656;28;20403;-81
2023/05/21 12:04:37;;;;;;;5.72;4.63;;;29.40;53.90;;;;;;5050502;28;20090;-79
2023/05/21 12:07:06;;;;;;;4.75;4.00;;;29.40;54.30;;;;;;5016293;28;20492;-81
2023/05/21 12:09:41;;;;;;;5.22;4.28;;;29.40;54.80;;;;;;5036949;28;20503;-80
2023/05/21 12:12:08;;;;;;;4.87;4.23;;;29.40;54.50;;;;;;5034012;28;20563;-79
2023/05/21 12:14:35;;;;;;;5.30;4.32;;;29.50;54.40;;;;;;5032870;28;20538;-78
2023/05/21 12:17:06;;;;;;;4.68;4.03;;;29.40;53.90;;;;;;5025791;28;20494;-80
2023/05/21 12:19:33;;;;;;;5.30;4.38;;;29.30;53.90;;;;;;5033974;28;20526;-80
2023/05/21 12:22:04;;;;;;;5.47;3.97;;;29.30;54.20;;;;;;5018034;28;20765;-81
2023/05/21 12:24:31;;;;;;;5.27;4.70;;;29.40;54.30;;;;;;5034676;28;20706;-80
2023/05/21 12:27:01;;;;;;;5.05;4.50;;;29.30;53.60;;;;;;5032730;28;20534;-79
2023/05/21 12:29:28;;;;;;;4.57;3.67;;;29.20;53.60;;;;;;5002462;28;20548;-77
2023/05/21 12:31:59;;;;;;;5.45;4.53;;;29.10;53.70;;;;;;5021747;28;20481;-81
2023/05/21 12:34:47;;;;;;;4.88;4.32;;;29.10;53.80;;;;;;5017345;28;20071;-81
2023/05/21 12:37:18;;;;;;;6.33;4.13;;;29.00;54.00;;;;;;5018436;28;20510;-80
2023/05/21 12:39:51;;;;;;;5.43;4.30;;;29.00;54.00;;;;;;5038687;28;20540;-79
2023/05/21 12:42:25;;;;;;;5.43;3.60;;;28.90;54.40;;;;;;5034482;28;20575;-78
2023/05/21 12:44:51;;;;;;;5.10;4.30;;;29.00;54.80;;;;;;5035728;28;20081;-79
2023/05/21 12:47:17;;;;;;;5.68;4.50;;;29.10;55.20;;;;;;5026219;28;20660;-80
2023/05/21 12:49:47;;;;;;;5.13;4.03;;;29.20;54.90;;;;;;5018144;28;20667;-81
2023/05/21 12:52:14;;;;;;;5.53;4.20;;;29.30;54.80;;;;;;5034075;28;20648;-82